Agar, South Dakota
Current Conditions -  °F | °C
As of 3:53 PM on Sunday 21 Dec 2014 (Local Time) from KPIR Reporting Station
Clear Clear  
Wind Chill: -2°   Ceiling: Unl
Heat Index:   Visibility: 10mi
Dew Point: -2°   Wind: 7mph
Humidity: 82%   Direction: 90°E
Pressure: 29.41"   Gusts: NA
Location:  44.84°N, 100.07°W
Report Text: KPIR 212153Z AUTO 09006KT 10SM CLR 01/M02 A2941 RMK AO2 SLP978 T00111017
Loading
Personal Weather Stations






























Interactive Weather Map New forecast layout! Learn more

10-Day Weather Forecast

Advertisements
Track Severe Weather on mobile